sensor_id;sensor_type;location;lat;lon;timestamp;temperature;humidity
16040;DHT22;8124;48.634;8.120;2023-09-08T00:01:43;23.60;99.90
16040;DHT22;8124;48.634;8.120;2023-09-08T00:06:46;23.60;99.90
16040;DHT22;8124;48.634;8.120;2023-09-08T00:11:50;23.60;99.90
16040;DHT22;8124;48.634;8.120;2023-09-08T00:16:54;23.60;99.90
16040;DHT22;8124;48.634;8.120;2023-09-08T00:21:57;23.60;99.90
16040;DHT22;8124;48.634;8.120;2023-09-08T00:27:01;23.50;99.90
16040;DHT22;8124;48.634;8.120;2023-09-08T00:32:05;23.40;99.90
16040;DHT22;8124;48.634;8.120;2023-09-08T00:37:08;23.30;99.90
16040;DHT22;8124;48.634;8.120;2023-09-08T00:42:13;23.20;99.90
16040;DHT22;8124;48.634;8.120;2023-09-08T00:47:16;23.10;99.90
16040;DHT22;8124;48.634;8.120;2023-09-08T00:52:19;23.00;99.90
16040;DHT22;8124;48.634;8.120;2023-09-08T00:57:23;22.70;99.90
16040;DHT22;8124;48.634;8.120;2023-09-08T01:02:26;22.60;99.90
16040;DHT22;8124;48.634;8.120;2023-09-08T01:07:30;22.70;99.90
16040;DHT22;8124;48.634;8.120;2023-09-08T01:12:35;22.80;99.90
16040;DHT22;8124;48.634;8.120;2023-09-08T01:17:38;22.70;99.90
16040;DHT22;8124;48.634;8.120;2023-09-08T01:22:55;22.70;99.90
16040;DHT22;8124;48.634;8.120;2023-09-08T01:28:01;22.70;99.90
16040;DHT22;8124;48.634;8.120;2023-09-08T01:33:05;22.70;99.90
16040;DHT22;8124;48.634;8.120;2023-09-08T01:38:10;22.70;99.90
16040;DHT22;8124;48.634;8.120;2023-09-08T01:43:15;22.50;99.90
16040;DHT22;8124;48.634;8.120;2023-09-08T01:48:19;22.30;99.90
16040;DHT22;8124;48.634;8.120;2023-09-08T01:53:22;22.40;99.90
16040;DHT22;8124;48.634;8.120;2023-09-08T01:58:27;22.50;99.90
16040;DHT22;8124;48.634;8.120;2023-09-08T02:03:33;22.40;99.90
16040;DHT22;8124;48.634;8.120;2023-09-08T02:08:36;22.30;99.90
16040;DHT22;8124;48.634;8.120;2023-09-08T02:13:43;22.00;99.90
16040;DHT22;8124;48.634;8.120;2023-09-08T02:18:46;22.00;99.90
16040;DHT22;8124;48.634;8.120;2023-09-08T02:23:49;21.80;99.90
16040;DHT22;8124;48.634;8.120;2023-09-08T02:28:54;22.00;99.90
16040;DHT22;8124;48.634;8.120;2023-09-08T02:33:59;22.00;99.90
16040;DHT22;8124;48.634;8.120;2023-09-08T02:39:03;22.10;99.90
16040;DHT22;8124;48.634;8.120;2023-09-08T02:44:08;22.00;99.90
16040;DHT22;8124;48.634;8.120;2023-09-08T02:49:11;21.90;99.90
16040;DHT22;8124;48.634;8.120;2023-09-08T02:54:14;21.90;99.90
16040;DHT22;8124;48.634;8.120;2023-09-08T02:59:19;21.80;99.90
16040;DHT22;8124;48.634;8.120;2023-09-08T03:04:22;21.50;99.90
16040;DHT22;8124;48.634;8.120;2023-09-08T03:09:27;21.50;99.90
16040;DHT22;8124;48.634;8.120;2023-09-08T03:14:32;21.70;99.90
16040;DHT22;8124;48.634;8.120;2023-09-08T03:19:35;21.70;99.90
16040;DHT22;8124;48.634;8.120;2023-09-08T03:24:38;21.80;99.90
16040;DHT22;8124;48.634;8.120;2023-09-08T03:29:43;21.80;99.90
16040;DHT22;8124;48.634;8.120;2023-09-08T03:34:46;21.70;99.90
16040;DHT22;8124;48.634;8.120;2023-09-08T03:39:49;21.50;99.90
16040;DHT22;8124;48.634;8.120;2023-09-08T03:44:54;21.30;99.90
16040;DHT22;8124;48.634;8.120;2023-09-08T03:49:58;21.10;99.90
16040;DHT22;8124;48.634;8.120;2023-09-08T03:55:01;21.20;99.90
16040;DHT22;8124;48.634;8.120;2023-09-08T04:00:08;21.30;99.90
16040;DHT22;8124;48.634;8.120;2023-09-08T04:05:17;21.30;99.90
16040;DHT22;8124;48.634;8.120;2023-09-08T04:10:21;21.30;99.90
16040;DHT22;8124;48.634;8.120;2023-09-08T04:15:25;21.20;99.90
16040;DHT22;8124;48.634;8.120;2023-09-08T04:20:28;21.20;99.90
16040;DHT22;8124;48.634;8.120;2023-09-08T04:25:31;21.20;99.90
16040;DHT22;8124;48.634;8.120;2023-09-08T04:30:36;21.30;99.90
16040;DHT22;8124;48.634;8.120;2023-09-08T04:35:39;21.30;99.90
16040;DHT22;8124;48.634;8.120;2023-09-08T04:40:42;21.30;99.90
16040;DHT22;8124;48.634;8.120;2023-09-08T04:45:46;21.20;99.90
16040;DHT22;8124;48.634;8.120;2023-09-08T04:50:50;21.20;99.90
16040;DHT22;8124;48.634;8.120;2023-09-08T04:55:54;21.10;99.90
16040;DHT22;8124;48.634;8.120;2023-09-08T05:00:59;21.10;99.90
16040;DHT22;8124;48.634;8.120;2023-09-08T05:06:03;20.90;99.90
16040;DHT22;8124;48.634;8.120;2023-09-08T05:11:06;21.10;99.90
16040;DHT22;8124;48.634;8.120;2023-09-08T05:16:10;21.20;99.90
16040;DHT22;8124;48.634;8.120;2023-09-08T05:21:22;21.20;99.90
16040;DHT22;8124;48.634;8.120;2023-09-08T05:26:25;21.20;99.90
16040;DHT22;8124;48.634;8.120;2023-09-08T05:31:30;21.20;99.90
16040;DHT22;8124;48.634;8.120;2023-09-08T05:36:33;21.30;99.90
16040;DHT22;8124;48.634;8.120;2023-09-08T05:41:39;21.30;99.90
16040;DHT22;8124;48.634;8.120;2023-09-08T05:46:43;21.20;99.90
16040;DHT22;8124;48.634;8.120;2023-09-08T05:51:47;20.90;99.90
16040;DHT22;8124;48.634;8.120;2023-09-08T05:56:51;21.00;99.90
16040;DHT22;8124;48.634;8.120;2023-09-08T06:01:55;21.20;99.90
16040;DHT22;8124;48.634;8.120;2023-09-08T06:06:59;21.30;99.90
16040;DHT22;8124;48.634;8.120;2023-09-08T06:12:03;21.30;99.90
16040;DHT22;8124;48.634;8.120;2023-09-08T06:17:07;21.50;99.90
16040;DHT22;8124;48.634;8.120;2023-09-08T06:22:10;21.50;99.90
16040;DHT22;8124;48.634;8.120;2023-09-08T06:27:14;21.60;99.90
16040;DHT22;8124;48.634;8.120;2023-09-08T06:32:19;21.70;99.90
16040;DHT22;8124;48.634;8.120;2023-09-08T06:37:23;21.70;99.90
16040;DHT22;8124;48.634;8.120;2023-09-08T06:42:26;21.80;99.90
16040;DHT22;8124;48.634;8.120;2023-09-08T06:47:41;21.80;99.90
16040;DHT22;8124;48.634;8.120;2023-09-08T06:52:44;21.90;99.90
16040;DHT22;8124;48.634;8.120;2023-09-08T06:57:47;22.00;99.90
16040;DHT22;8124;48.634;8.120;2023-09-08T07:02:51;21.90;99.90
16040;DHT22;8124;48.634;8.120;2023-09-08T07:07:55;22.00;99.90
16040;DHT22;8124;48.634;8.120;2023-09-08T07:12:58;22.10;99.90
16040;DHT22;8124;48.634;8.120;2023-09-08T07:18:04;22.20;99.90
16040;DHT22;8124;48.634;8.120;2023-09-08T07:23:07;22.40;99.90
16040;DHT22;8124;48.634;8.120;2023-09-08T07:28:14;22.70;99.90
16040;DHT22;8124;48.634;8.120;2023-09-08T07:33:19;22.90;99.90
16040;DHT22;8124;48.634;8.120;2023-09-08T07:38:24;22.90;99.90
16040;DHT22;8124;48.634;8.120;2023-09-08T07:43:28;22.90;99.90
16040;DHT22;8124;48.634;8.120;2023-09-08T07:48:33;23.00;99.90
16040;DHT22;8124;48.634;8.120;2023-09-08T07:53:36;23.10;99.90
16040;DHT22;8124;48.634;8.120;2023-09-08T07:58:42;23.20;99.90
16040;DHT22;8124;48.634;8.120;2023-09-08T08:03:48;23.20;99.90
16040;DHT22;8124;48.634;8.120;2023-09-08T08:10:25;23.30;99.90
16040;DHT22;8124;48.634;8.120;2023-09-08T08:15:11;23.60;99.90
16040;DHT22;8124;48.634;8.120;2023-09-08T08:20:15;23.70;99.90
16040;DHT22;8124;48.634;8.120;2023-09-08T08:25:20;23.90;99.90
16040;DHT22;8124;48.634;8.120;2023-09-08T08:30:23;24.00;99.90
16040;DHT22;8124;48.634;8.120;2023-09-08T08:35:28;24.10;99.90
16040;DHT22;8124;48.634;8.120;2023-09-08T08:40:31;24.20;99.90
16040;DHT22;8124;48.634;8.120;2023-09-08T08:45:37;24.30;99.90
16040;DHT22;8124;48.634;8.120;2023-09-08T08:50:43;24.30;99.90
16040;DHT22;8124;48.634;8.120;2023-09-08T08:55:47;24.40;99.90
16040;DHT22;8124;48.634;8.120;2023-09-08T09:00:52;24.50;99.90
16040;DHT22;8124;48.634;8.120;2023-09-08T09:05:57;24.80;99.90
16040;DHT22;8124;48.634;8.120;2023-09-08T09:11:00;24.90;99.90
16040;DHT22;8124;48.634;8.120;2023-09-08T09:16:04;24.90;99.90
16040;DHT22;8124;48.634;8.120;2023-09-08T09:21:13;24.90;99.90
16040;DHT22;8124;48.634;8.120;2023-09-08T09:26:23;25.00;99.90
16040;DHT22;8124;48.634;8.120;2023-09-08T09:31:26;25.00;99.90
16040;DHT22;8124;48.634;8.120;2023-09-08T09:36:31;25.10;99.90
16040;DHT22;8124;48.634;8.120;2023-09-08T09:41:34;25.50;99.90
16040;DHT22;8124;48.634;8.120;2023-09-08T09:46:37;25.40;99.90
16040;DHT22;8124;48.634;8.120;2023-09-08T09:51:42;25.40;99.90
16040;DHT22;8124;48.634;8.120;2023-09-08T09:56:46;25.80;99.90
16040;DHT22;8124;48.634;8.120;2023-09-08T10:01:53;25.80;99.90
16040;DHT22;8124;48.634;8.120;2023-09-08T10:06:58;25.70;99.90
16040;DHT22;8124;48.634;8.120;2023-09-08T10:12:04;25.90;99.90
16040;DHT22;8124;48.634;8.120;2023-09-08T10:17:12;25.80;99.90
16040;DHT22;8124;48.634;8.120;2023-09-08T10:22:19;25.90;99.90
16040;DHT22;8124;48.634;8.120;2023-09-08T10:27:24;26.20;99.90
16040;DHT22;8124;48.634;8.120;2023-09-08T10:32:28;26.40;99.90
16040;DHT22;8124;48.634;8.120;2023-09-08T10:37:32;26.80;99.90
16040;DHT22;8124;48.634;8.120;2023-09-08T10:42:40;26.90;99.90
16040;DHT22;8124;48.634;8.120;2023-09-08T10:47:56;26.80;99.90
16040;DHT22;8124;48.634;8.120;2023-09-08T10:53:15;26.80;99.90
16040;DHT22;8124;48.634;8.120;2023-09-08T10:58:19;26.90;99.90
16040;DHT22;8124;48.634;8.120;2023-09-08T11:03:27;26.80;99.90
16040;DHT22;8124;48.634;8.120;2023-09-08T11:08:33;26.80;99.90
16040;DHT22;8124;48.634;8.120;2023-09-08T11:13:37;26.90;99.90
16040;DHT22;8124;48.634;8.120;2023-09-08T11:18:41;27.10;99.90
16040;DHT22;8124;48.634;8.120;2023-09-08T11:23:46;27.30;99.90
16040;DHT22;8124;48.634;8.120;2023-09-08T11:28:50;27.30;99.90
16040;DHT22;8124;48.634;8.120;2023-09-08T11:33:55;27.30;99.90
16040;DHT22;8124;48.634;8.120;2023-09-08T11:38:59;27.60;99.90
16040;DHT22;8124;48.634;8.120;2023-09-08T11:44:03;27.70;99.90
16040;DHT22;8124;48.634;8.120;2023-09-08T11:49:07;27.70;99.90
16040;DHT22;8124;48.634;8.120;2023-09-08T11:54:12;27.70;99.90
16040;DHT22;8124;48.634;8.120;2023-09-08T11:59:15;27.60;99.90
16040;DHT22;8124;48.634;8.120;2023-09-08T12:04:19;27.90;99.90
16040;DHT22;8124;48.634;8.120;2023-09-08T12:09:24;28.10;99.90
16040;DHT22;8124;48.634;8.120;2023-09-08T12:14:27;27.90;99.90
16040;DHT22;8124;48.634;8.120;2023-09-08T12:19:31;28.00;99.90
16040;DHT22;8124;48.634;8.120;2023-09-08T12:24:49;28.00;99.90
16040;DHT22;8124;48.634;8.120;2023-09-08T12:29:54;28.20;99.90
16040;DHT22;8124;48.634;8.120;2023-09-08T12:34:58;28.30;99.90
16040;DHT22;8124;48.634;8.120;2023-09-08T12:40:05;28.40;99.90
16040;DHT22;8124;48.634;8.120;2023-09-08T12:45:09;28.40;99.90
16040;DHT22;8124;48.634;8.120;2023-09-08T12:50:13;28.50;99.90
16040;DHT22;8124;48.634;8.120;2023-09-08T12:55:17;28.50;99.90
16040;DHT22;8124;48.634;8.120;2023-09-08T13:00:20;28.70;99.90
16040;DHT22;8124;48.634;8.120;2023-09-08T13:05:25;28.70;99.90
16040;DHT22;8124;48.634;8.120;2023-09-08T13:10:29;28.80;99.90
16040;DHT22;8124;48.634;8.120;2023-09-08T13:15:33;28.80;99.90
16040;DHT22;8124;48.634;8.120;2023-09-08T13:20:36;28.90;99.90
16040;DHT22;8124;48.634;8.120;2023-09-08T13:25:40;29.00;99.90
16040;DHT22;8124;48.634;8.120;2023-09-08T13:30:43;28.80;99.90
16040;DHT22;8124;48.634;8.120;2023-09-08T13:35:47;29.00;99.90
16040;DHT22;8124;48.634;8.120;2023-09-08T13:40:51;29.10;99.90
16040;DHT22;8124;48.634;8.120;2023-09-08T13:45:54;29.00;99.90
16040;DHT22;8124;48.634;8.120;2023-09-08T13:51:01;29.10;99.90
16040;DHT22;8124;48.634;8.120;2023-09-08T13:56:08;29.20;99.90
16040;DHT22;8124;48.634;8.120;2023-09-08T14:01:15;29.40;99.90
16040;DHT22;8124;48.634;8.120;2023-09-08T14:06:21;29.40;99.90
16040;DHT22;8124;48.634;8.120;2023-09-08T14:11:33;29.30;99.90
16040;DHT22;8124;48.634;8.120;2023-09-08T14:16:56;29.60;99.90
16040;DHT22;8124;48.634;8.120;2023-09-08T14:21:59;29.60;99.90
16040;DHT22;8124;48.634;8.120;2023-09-08T14:27:03;29.80;99.90
16040;DHT22;8124;48.634;8.120;2023-09-08T14:32:06;29.80;99.90
16040;DHT22;8124;48.634;8.120;2023-09-08T14:37:10;29.80;99.90
16040;DHT22;8124;48.634;8.120;2023-09-08T14:42:14;29.70;99.90
16040;DHT22;8124;48.634;8.120;2023-09-08T14:47:17;29.70;99.90
16040;DHT22;8124;48.634;8.120;2023-09-08T14:52:20;29.90;99.90
16040;DHT22;8124;48.634;8.120;2023-09-08T14:57:25;30.00;99.90
16040;DHT22;8124;48.634;8.120;2023-09-08T15:02:28;30.00;99.90
16040;DHT22;8124;48.634;8.120;2023-09-08T15:07:31;30.10;99.90
16040;DHT22;8124;48.634;8.120;2023-09-08T15:12:35;30.20;99.90
16040;DHT22;8124;48.634;8.120;2023-09-08T15:17:38;30.10;99.90
16040;DHT22;8124;48.634;8.120;2023-09-08T15:22:41;30.10;99.90
16040;DHT22;8124;48.634;8.120;2023-09-08T15:27:46;30.30;99.90
16040;DHT22;8124;48.634;8.120;2023-09-08T15:32:49;30.20;99.90
16040;DHT22;8124;48.634;8.120;2023-09-08T15:37:52;30.20;99.90
16040;DHT22;8124;48.634;8.120;2023-09-08T15:42:56;30.30;99.90
16040;DHT22;8124;48.634;8.120;2023-09-08T15:47:59;30.30;99.90
16040;DHT22;8124;48.634;8.120;2023-09-08T15:53:04;30.20;99.90
16040;DHT22;8124;48.634;8.120;2023-09-08T15:58:09;30.20;99.90
16040;DHT22;8124;48.634;8.120;2023-09-08T16:03:12;30.20;99.90
16040;DHT22;8124;48.634;8.120;2023-09-08T16:08:16;30.20;99.90
16040;DHT22;8124;48.634;8.120;2023-09-08T16:13:20;30.20;99.90
16040;DHT22;8124;48.634;8.120;2023-09-08T16:18:23;30.20;99.90
16040;DHT22;8124;48.634;8.120;2023-09-08T16:23:27;30.00;99.90
16040;DHT22;8124;48.634;8.120;2023-09-08T16:28:32;30.10;99.90
16040;DHT22;8124;48.634;8.120;2023-09-08T16:33:35;30.10;99.90
16040;DHT22;8124;48.634;8.120;2023-09-08T16:38:38;30.10;99.90
16040;DHT22;8124;48.634;8.120;2023-09-08T16:43:43;30.10;99.90
16040;DHT22;8124;48.634;8.120;2023-09-08T16:48:46;30.20;99.90
16040;DHT22;8124;48.634;8.120;2023-09-08T16:53:49;30.20;99.90
16040;DHT22;8124;48.634;8.120;2023-09-08T16:58:53;30.10;99.90
16040;DHT22;8124;48.634;8.120;2023-09-08T17:03:56;30.00;99.90
16040;DHT22;8124;48.634;8.120;2023-09-08T17:08:59;29.70;99.90
16040;DHT22;8124;48.634;8.120;2023-09-08T17:14:03;29.60;99.90
16040;DHT22;8124;48.634;8.120;2023-09-08T17:19:06;29.80;99.90
16040;DHT22;8124;48.634;8.120;2023-09-08T17:24:09;30.10;99.90
16040;DHT22;8124;48.634;8.120;2023-09-08T17:29:14;30.30;99.90
16040;DHT22;8124;48.634;8.120;2023-09-08T17:34:18;30.20;99.90
16040;DHT22;8124;48.634;8.120;2023-09-08T17:39:21;30.10;99.90
16040;DHT22;8124;48.634;8.120;2023-09-08T17:44:26;30.10;99.90
16040;DHT22;8124;48.634;8.120;2023-09-08T17:49:29;30.00;99.90
16040;DHT22;8124;48.634;8.120;2023-09-08T17:54:32;29.70;99.90
16040;DHT22;8124;48.634;8.120;2023-09-08T17:59:36;29.50;99.90
16040;DHT22;8124;48.634;8.120;2023-09-08T18:04:40;29.30;99.90
16040;DHT22;8124;48.634;8.120;2023-09-08T18:09:44;29.00;99.90
16040;DHT22;8124;48.634;8.120;2023-09-08T18:14:49;28.80;99.90
16040;DHT22;8124;48.634;8.120;2023-09-08T18:19:52;28.80;99.90
16040;DHT22;8124;48.634;8.120;2023-09-08T18:24:55;28.70;99.90
16040;DHT22;8124;48.634;8.120;2023-09-08T18:30:00;28.60;99.90
16040;DHT22;8124;48.634;8.120;2023-09-08T18:35:04;28.50;99.90
16040;DHT22;8124;48.634;8.120;2023-09-08T18:40:08;28.30;99.90
16040;DHT22;8124;48.634;8.120;2023-09-08T18:45:13;28.10;99.90
16040;DHT22;8124;48.634;8.120;2023-09-08T18:50:17;28.10;99.90
16040;DHT22;8124;48.634;8.120;2023-09-08T18:55:20;27.80;99.90
16040;DHT22;8124;48.634;8.120;2023-09-08T19:00:24;27.80;99.90
16040;DHT22;8124;48.634;8.120;2023-09-08T19:05:28;27.80;99.90
16040;DHT22;8124;48.634;8.120;2023-09-08T19:10:31;27.70;99.90
16040;DHT22;8124;48.634;8.120;2023-09-08T19:15:35;27.60;99.90
16040;DHT22;8124;48.634;8.120;2023-09-08T19:20:39;27.60;99.90
16040;DHT22;8124;48.634;8.120;2023-09-08T19:25:42;27.40;99.90
16040;DHT22;8124;48.634;8.120;2023-09-08T19:30:47;27.30;99.90
16040;DHT22;8124;48.634;8.120;2023-09-08T19:35:51;27.30;99.90
16040;DHT22;8124;48.634;8.120;2023-09-08T19:41:00;27.20;99.90
16040;DHT22;8124;48.634;8.120;2023-09-08T19:46:06;27.00;99.90
16040;DHT22;8124;48.634;8.120;2023-09-08T19:51:09;27.00;99.90
16040;DHT22;8124;48.634;8.120;2023-09-08T19:56:13;26.90;99.90
16040;DHT22;8124;48.634;8.120;2023-09-08T20:01:18;26.90;99.90
16040;DHT22;8124;48.634;8.120;2023-09-08T20:06:21;26.80;99.90
16040;DHT22;8124;48.634;8.120;2023-09-08T20:11:24;26.70;99.90
16040;DHT22;8124;48.634;8.120;2023-09-08T20:16:28;26.30;99.90
16040;DHT22;8124;48.634;8.120;2023-09-08T20:21:32;26.30;99.90
16040;DHT22;8124;48.634;8.120;2023-09-08T20:26:35;26.30;99.90
16040;DHT22;8124;48.634;8.120;2023-09-08T20:31:39;26.30;99.90
16040;DHT22;8124;48.634;8.120;2023-09-08T20:36:42;26.20;99.90
16040;DHT22;8124;48.634;8.120;2023-09-08T20:41:45;26.10;99.90
16040;DHT22;8124;48.634;8.120;2023-09-08T20:46:52;26.10;99.90
16040;DHT22;8124;48.634;8.120;2023-09-08T20:51:55;25.90;99.90
16040;DHT22;8124;48.634;8.120;2023-09-08T20:56:58;25.90;99.90
16040;DHT22;8124;48.634;8.120;2023-09-08T21:02:03;25.60;99.90
16040;DHT22;8124;48.634;8.120;2023-09-08T21:07:06;24.80;99.90
16040;DHT22;8124;48.634;8.120;2023-09-08T21:12:09;25.10;99.90
16040;DHT22;8124;48.634;8.120;2023-09-08T21:17:13;25.10;99.90
16040;DHT22;8124;48.634;8.120;2023-09-08T21:22:16;25.30;99.90
16040;DHT22;8124;48.634;8.120;2023-09-08T21:27:19;25.20;99.90
16040;DHT22;8124;48.634;8.120;2023-09-08T21:32:23;25.30;99.90
16040;DHT22;8124;48.634;8.120;2023-09-08T21:37:26;25.20;99.90
16040;DHT22;8124;48.634;8.120;2023-09-08T21:42:30;25.20;99.90
16040;DHT22;8124;48.634;8.120;2023-09-08T21:47:34;25.10;99.90
16040;DHT22;8124;48.634;8.120;2023-09-08T21:52:37;25.10;99.90
16040;DHT22;8124;48.634;8.120;2023-09-08T21:57:40;24.30;99.90
16040;DHT22;8124;48.634;8.120;2023-09-08T22:02:45;24.10;99.90
16040;DHT22;8124;48.634;8.120;2023-09-08T22:07:48;24.30;99.90
16040;DHT22;8124;48.634;8.120;2023-09-08T22:12:51;24.60;99.90
16040;DHT22;8124;48.634;8.120;2023-09-08T22:17:56;24.70;99.90
16040;DHT22;8124;48.634;8.120;2023-09-08T22:22:59;24.80;99.90
16040;DHT22;8124;48.634;8.120;2023-09-08T22:28:02;24.70;99.90
16040;DHT22;8124;48.634;8.120;2023-09-08T22:33:07;24.70;99.90
16040;DHT22;8124;48.634;8.120;2023-09-08T22:38:10;24.70;99.90
16040;DHT22;8124;48.634;8.120;2023-09-08T22:43:13;24.50;99.90
16040;DHT22;8124;48.634;8.120;2023-09-08T22:48:17;24.20;99.90
16040;DHT22;8124;48.634;8.120;2023-09-08T22:53:21;23.40;99.90
16040;DHT22;8124;48.634;8.120;2023-09-08T22:58:24;23.70;99.90
16040;DHT22;8124;48.634;8.120;2023-09-08T23:03:28;24.00;99.90
16040;DHT22;8124;48.634;8.120;2023-09-08T23:08:31;24.10;99.90
16040;DHT22;8124;48.634;8.120;2023-09-08T23:13:34;24.20;99.90
16040;DHT22;8124;48.634;8.120;2023-09-08T23:18:39;24.20;99.90
16040;DHT22;8124;48.634;8.120;2023-09-08T23:23:42;24.10;99.90
16040;DHT22;8124;48.634;8.120;2023-09-08T23:28:45;24.00;99.90
16040;DHT22;8124;48.634;8.120;2023-09-08T23:33:50;24.00;99.90
16040;DHT22;8124;48.634;8.120;2023-09-08T23:38:53;24.00;99.90
16040;DHT22;8124;48.634;8.120;2023-09-08T23:43:56;23.70;99.90
16040;DHT22;8124;48.634;8.120;2023-09-08T23:49:00;23.00;99.90
16040;DHT22;8124;48.634;8.120;2023-09-08T23:54:04;22.80;99.90
16040;DHT22;8124;48.634;8.120;2023-09-08T23:59:07;23.20;99.90
